createdAt,value
2023-07-09T00:02:21.049Z,15.10
2023-07-09T00:04:51.703Z,25.10
2023-07-09T00:07:26.459Z,14.73
2023-07-09T00:09:58.523Z,18.10
2023-07-09T00:12:29.542Z,19.17
2023-07-09T00:15:01.578Z,17.00
2023-07-09T00:17:35.446Z,16.43
2023-07-09T00:20:07.602Z,17.10
2023-07-09T00:22:38.089Z,19.57
2023-07-09T00:25:09.196Z,18.63
2023-07-09T00:27:39.981Z,18.53
2023-07-09T00:30:18.186Z,14.90
2023-07-09T00:32:48.613Z,19.73
2023-07-09T00:35:19.331Z,17.57
2023-07-09T00:37:50.296Z,17.50
2023-07-09T00:40:22.847Z,20.10
2023-07-09T00:42:55.894Z,24.60
2023-07-09T00:45:30.022Z,15.17
2023-07-09T00:48:02.810Z,15.03
2023-07-09T00:50:47.397Z,20.03
2023-07-09T00:53:22.494Z,18.97
2023-07-09T00:55:58.593Z,18.63
2023-07-09T00:58:30.865Z,20.50
2023-07-09T01:01:07.597Z,14.17
2023-07-09T01:03:42.829Z,20.63
2023-07-09T01:06:14.333Z,18.00
2023-07-09T01:08:44.933Z,17.63
2023-07-09T01:11:24.102Z,18.93
2023-07-09T01:13:58.304Z,20.17
2023-07-09T01:16:34.328Z,21.47
2023-07-09T01:19:06.292Z,17.23
2023-07-09T01:21:38.427Z,20.23
2023-07-09T01:24:18.082Z,14.10
2023-07-09T01:26:49.216Z,16.40
2023-07-09T01:29:19.743Z,16.97
2023-07-09T01:31:50.258Z,17.00
2023-07-09T01:34:23.981Z,14.97
2023-07-09T01:36:56.391Z,20.00
2023-07-09T01:39:28.038Z,16.80
2023-07-09T01:41:58.822Z,17.10
2023-07-09T01:44:32.077Z,20.23
2023-07-09T01:47:06.294Z,16.40
2023-07-09T01:49:36.752Z,20.00
2023-07-09T01:52:10.382Z,16.70
2023-07-09T01:54:41.214Z,21.97
2023-07-09T01:57:21.362Z,17.10
2023-07-09T01:59:51.827Z,20.53
2023-07-09T02:02:22.468Z,17.53
2023-07-09T02:04:54.748Z,20.87
2023-07-09T02:07:28.124Z,16.63
2023-07-09T02:09:58.602Z,20.43
2023-07-09T02:12:29.203Z,16.03
2023-07-09T02:14:59.718Z,16.37
2023-07-09T02:17:30.230Z,17.17
2023-07-09T02:20:00.750Z,21.90
2023-07-09T02:22:32.857Z,23.23
2023-07-09T02:25:03.678Z,19.87
2023-07-09T02:27:34.190Z,23.57
2023-07-09T02:30:04.696Z,21.13
2023-07-09T02:32:35.298Z,16.37
2023-07-09T02:35:06.456Z,17.77
2023-07-09T02:37:38.651Z,24.30
2023-07-09T02:40:11.805Z,21.20
2023-07-09T02:42:42.398Z,21.47
2023-07-09T02:45:14.003Z,16.00
2023-07-09T02:47:44.495Z,17.13
2023-07-09T02:50:15.109Z,19.90
2023-07-09T02:52:47.337Z,16.93
2023-07-09T02:55:17.854Z,21.63
2023-07-09T02:57:48.363Z,18.90
2023-07-09T03:00:19.766Z,17.07
2023-07-09T03:02:50.378Z,19.47
2023-07-09T03:05:20.926Z,17.27
2023-07-09T03:07:52.985Z,18.07
2023-07-09T03:10:23.453Z,23.40
2023-07-09T03:12:54.308Z,20.97
2023-07-09T03:15:24.854Z,25.07
2023-07-09T03:17:55.306Z,22.47
2023-07-09T03:20:26.083Z,24.07
2023-07-09T03:22:58.451Z,17.67
2023-07-09T03:25:29.217Z,20.00
2023-07-09T03:27:59.804Z,24.20
2023-07-09T03:30:30.573Z,27.00
2023-07-09T03:33:02.190Z,22.90
2023-07-09T03:35:32.844Z,23.43
2023-07-09T03:38:04.989Z,21.03
2023-07-09T03:40:35.700Z,19.87
2023-07-09T03:43:08.929Z,18.00
2023-07-09T03:45:40.293Z,24.87
2023-07-09T03:48:12.253Z,16.47
2023-07-09T03:50:43.027Z,17.00
2023-07-09T03:53:16.516Z,20.43
2023-07-09T03:55:49.312Z,20.73
2023-07-09T03:58:19.701Z,20.17
2023-07-09T04:00:50.184Z,17.00
2023-07-09T04:03:20.800Z,22.40
2023-07-09T04:05:52.122Z,16.17
2023-07-09T04:08:24.208Z,23.37
2023-07-09T04:10:58.384Z,17.30
2023-07-09T04:13:32.056Z,21.23
2023-07-09T04:16:03.209Z,27.23
2023-07-09T04:18:34.233Z,21.60
2023-07-09T04:21:04.748Z,20.97
2023-07-09T04:23:36.953Z,17.57
2023-07-09T04:26:11.025Z,19.50
2023-07-09T04:28:41.662Z,20.53
2023-07-09T04:31:12.074Z,13.20
2023-07-09T04:33:42.608Z,25.53
2023-07-09T04:36:14.819Z,20.50
2023-07-09T04:38:46.979Z,21.77
2023-07-09T04:41:17.764Z,19.23
2023-07-09T04:43:48.189Z,17.47
2023-07-09T04:46:18.776Z,10.23
2023-07-09T04:48:49.584Z,16.77
2023-07-09T04:51:20.065Z,11.80
2023-07-09T04:53:53.503Z,13.40
2023-07-09T04:56:24.660Z,15.00
2023-07-09T04:58:55.216Z,10.23
2023-07-09T05:01:25.827Z,16.03
2023-07-09T05:03:59.554Z,11.70
2023-07-09T05:06:30.207Z,10.47
2023-07-09T05:09:02.528Z,16.97
2023-07-09T05:11:33.281Z,11.97
2023-07-09T05:14:05.878Z,10.53
2023-07-09T05:16:36.454Z,14.67
2023-07-09T05:19:07.201Z,14.13
2023-07-09T05:21:37.772Z,15.17
2023-07-09T05:24:10.687Z,14.87
2023-07-09T05:26:41.324Z,12.43
2023-07-09T05:29:11.779Z,12.00
2023-07-09T05:31:43.855Z,13.70
2023-07-09T05:34:16.750Z,10.10
2023-07-09T05:36:48.791Z,11.53
2023-07-09T05:39:21.997Z,11.60
2023-07-09T05:41:52.723Z,12.00
2023-07-09T05:44:23.143Z,9.87
2023-07-09T05:46:53.656Z,9.17
2023-07-09T05:49:24.325Z,10.73
2023-07-09T05:51:54.747Z,10.80
2023-07-09T05:54:27.146Z,10.07
2023-07-09T05:56:57.906Z,9.43
2023-07-09T05:59:28.452Z,9.23
2023-07-09T06:01:59.318Z,7.67
2023-07-09T06:04:30.021Z,6.50
2023-07-09T06:07:00.577Z,13.97
2023-07-09T06:09:32.784Z,9.07
2023-07-09T06:12:04.490Z,8.87
2023-07-09T06:14:35.746Z,13.07
2023-07-09T06:17:06.806Z,13.13
2023-07-09T06:19:37.377Z,9.57
2023-07-09T06:22:08.817Z,7.60
2023-07-09T06:24:40.836Z,8.30
2023-07-09T06:27:11.309Z,9.77
2023-07-09T06:29:41.818Z,9.43
2023-07-09T06:32:12.350Z,15.83
2023-07-09T06:34:43.233Z,9.00
2023-07-09T06:37:13.761Z,8.63
2023-07-09T06:39:47.052Z,12.03
2023-07-09T06:42:17.750Z,8.90
2023-07-09T06:44:48.664Z,9.47
2023-07-09T06:47:19.510Z,9.80
2023-07-09T06:49:50.359Z,11.77
2023-07-09T06:52:20.904Z,9.70
2023-07-09T06:54:53.092Z,10.73
2023-07-09T06:57:23.830Z,13.87
2023-07-09T06:59:54.299Z,6.53
2023-07-09T07:02:25.143Z,6.27
2023-07-09T07:04:55.736Z,11.70
2023-07-09T07:07:26.289Z,10.33
2023-07-09T07:10:05.572Z,9.20
2023-07-09T07:13:05.897Z,10.00
2023-07-09T07:15:37.273Z,7.73
2023-07-09T07:18:08.376Z,15.67
2023-07-09T07:20:38.917Z,10.83
2023-07-09T07:23:09.612Z,14.23
2023-07-09T07:25:42.106Z,8.87
2023-07-09T07:28:12.848Z,14.63
2023-07-09T07:30:43.674Z,10.40
2023-07-09T07:33:14.659Z,10.60
2023-07-09T07:36:06.324Z,12.13
2023-07-09T07:38:36.521Z,10.03
2023-07-09T07:41:08.623Z,11.63
2023-07-09T07:43:39.433Z,8.63
2023-07-09T07:46:11.040Z,18.00
2023-07-09T07:48:41.659Z,15.37
2023-07-09T07:51:12.877Z,12.93
2023-07-09T07:53:43.332Z,15.27
2023-07-09T07:56:15.977Z,14.37
2023-07-09T07:58:46.708Z,14.77
2023-07-09T08:01:17.181Z,8.93
2023-07-09T08:03:47.565Z,15.80
2023-07-09T08:06:18.308Z,10.77
2023-07-09T08:08:48.871Z,12.67
2023-07-09T08:11:21.697Z,19.60
2023-07-09T08:13:52.157Z,12.47
2023-07-09T08:16:22.699Z,16.57
2023-07-09T08:18:56.610Z,17.70
2023-07-09T08:21:27.255Z,12.30
2023-07-09T08:23:57.825Z,13.00
2023-07-09T08:26:30.252Z,17.00
2023-07-09T08:29:00.880Z,15.00
2023-07-09T08:31:31.354Z,14.73
2023-07-09T08:34:04.725Z,18.30
2023-07-09T08:36:35.148Z,14.67
2023-07-09T08:39:06.948Z,12.03
2023-07-09T08:41:46.481Z,11.93
2023-07-09T08:44:50.101Z,13.93
2023-07-09T08:47:28.895Z,20.30
2023-07-09T08:50:03.347Z,17.03
2023-07-09T08:52:38.948Z,14.73
2023-07-09T08:55:13.307Z,14.20
2023-07-09T08:57:49.860Z,14.70
2023-07-09T09:00:30.386Z,14.00
2023-07-09T09:03:04.534Z,14.90
2023-07-09T09:05:38.695Z,19.80
2023-07-09T09:08:22.362Z,16.57
2023-07-09T09:11:05.080Z,12.73
2023-07-09T09:13:40.732Z,9.53
2023-07-09T09:16:22.833Z,17.83
2023-07-09T09:19:22.886Z,13.03
2023-07-09T09:21:59.236Z,13.83
2023-07-09T09:24:36.253Z,13.50
2023-07-09T09:27:08.372Z,13.33
2023-07-09T09:29:41.922Z,11.27
2023-07-09T09:32:27.289Z,10.43
2023-07-09T09:34:59.563Z,17.80
2023-07-09T09:37:34.401Z,11.40
2023-07-09T09:42:40.839Z,15.37
2023-07-09T09:45:19.208Z,14.90
2023-07-09T09:47:51.535Z,11.07
2023-07-09T09:50:25.485Z,16.33
2023-07-09T09:52:58.241Z,19.07
2023-07-09T09:55:34.762Z,21.00
2023-07-09T09:58:06.751Z,14.23
2023-07-09T10:00:40.695Z,19.00
2023-07-09T10:03:12.829Z,16.80
2023-07-09T10:05:58.915Z,17.40
2023-07-09T10:08:43.627Z,15.13
2023-07-09T10:11:23.688Z,13.20
2023-07-09T10:13:59.227Z,13.10
2023-07-09T10:16:38.426Z,15.23
2023-07-09T10:19:19.857Z,22.20
2023-07-09T10:21:59.892Z,15.43
2023-07-09T10:24:49.810Z,16.43
2023-07-09T10:27:26.780Z,17.43
2023-07-09T10:30:23.201Z,16.03
2023-07-09T10:33:07.099Z,13.77
2023-07-09T10:35:46.493Z,16.67
2023-07-09T10:38:30.927Z,17.73
2023-07-09T10:41:20.691Z,14.53
2023-07-09T10:44:02.349Z,17.37
2023-07-09T10:46:38.536Z,17.30
2023-07-09T10:49:17.379Z,11.87
2023-07-09T10:51:53.526Z,20.40
2023-07-09T10:54:34.721Z,15.30
2023-07-09T10:57:13.439Z,16.50
2023-07-09T10:59:46.335Z,16.05
2023-07-09T11:02:25.691Z,18.23
2023-07-09T11:05:00.201Z,15.50
2023-07-09T11:07:36.899Z,14.87
2023-07-09T11:10:14.333Z,15.90
2023-07-09T11:12:49.752Z,20.53
2023-07-09T11:15:27.847Z,14.93
2023-07-09T11:18:03.445Z,17.17
2023-07-09T11:20:40.770Z,24.20
2023-07-09T11:23:22.618Z,18.93
2023-07-09T11:26:05.352Z,19.00
2023-07-09T11:28:40.977Z,14.87
2023-07-09T11:31:19.765Z,16.57
2023-07-09T11:33:53.447Z,14.65
2023-07-09T11:36:32.415Z,16.87
2023-07-09T11:39:04.486Z,15.98
2023-07-09T11:41:47.538Z,13.63
2023-07-09T11:44:22.083Z,17.70
2023-07-09T11:47:03.014Z,15.67
2023-07-09T11:49:45.349Z,14.00
2023-07-09T11:52:23.028Z,13.43
2023-07-09T11:54:54.497Z,18.67
2023-07-09T11:57:26.279Z,18.77
2023-07-09T12:00:03.144Z,19.83
2023-07-09T12:02:38.350Z,18.90
2023-07-09T12:05:11.814Z,15.60
2023-07-09T12:07:45.897Z,19.67
2023-07-09T12:10:24.554Z,15.87
2023-07-09T12:13:03.502Z,18.38
2023-07-09T12:18:13.831Z,16.07
2023-07-09T12:20:49.619Z,16.30
2023-07-09T12:23:30.108Z,15.57
2023-07-09T12:26:05.475Z,13.93
2023-07-09T12:28:37.491Z,15.67
2023-07-09T12:31:09.212Z,17.67
2023-07-09T12:33:41.048Z,19.73
2023-07-09T12:36:14.586Z,23.73
2023-07-09T12:38:49.696Z,19.00
2023-07-09T12:41:26.994Z,19.87
2023-07-09T12:44:00.419Z,17.30
2023-07-09T12:46:33.174Z,15.33
2023-07-09T12:49:05.592Z,18.03
2023-07-09T12:51:37.270Z,19.27
2023-07-09T12:54:23.388Z,18.13
2023-07-09T12:56:57.089Z,16.90
2023-07-09T12:59:30.351Z,16.67
2023-07-09T13:02:07.031Z,17.60
2023-07-09T13:04:41.440Z,13.90
2023-07-09T13:07:30.939Z,16.87
2023-07-09T13:10:11.938Z,18.87
2023-07-09T13:12:45.541Z,22.90
2023-07-09T13:15:31.882Z,19.93
2023-07-09T13:18:07.440Z,16.17
2023-07-09T13:20:42.928Z,16.30
2023-07-09T13:23:16.621Z,17.87
2023-07-09T13:25:50.245Z,18.93
2023-07-09T13:28:24.335Z,18.07
2023-07-09T13:30:57.306Z,21.60
2023-07-09T13:33:29.084Z,20.03
2023-07-09T13:36:00.631Z,16.57
2023-07-09T13:38:32.197Z,21.27
2023-07-09T13:41:14.569Z,20.80
2023-07-09T13:43:48.518Z,18.90
2023-07-09T13:46:20.238Z,22.97
2023-07-09T13:48:51.799Z,21.70
2023-07-09T13:51:27.467Z,17.37
2023-07-09T13:54:01.522Z,19.73
2023-07-09T13:56:34.926Z,18.43
2023-07-09T13:59:06.743Z,23.30
2023-07-09T14:01:39.191Z,17.57
2023-07-09T14:04:13.796Z,14.53
2023-07-09T14:06:45.953Z,15.83
2023-07-09T14:09:18.398Z,15.00
2023-07-09T14:11:53.620Z,18.10
2023-07-09T14:14:28.242Z,18.30
2023-07-09T14:16:59.929Z,24.67
2023-07-09T14:19:32.559Z,16.00
2023-07-09T14:22:04.194Z,17.93
2023-07-09T14:24:35.831Z,15.60
2023-07-09T14:27:14.558Z,17.37
2023-07-09T14:29:46.301Z,14.10
2023-07-09T14:32:38.577Z,17.73
2023-07-09T14:35:18.772Z,15.77
2023-07-09T14:37:51.737Z,13.67
2023-07-09T14:40:25.100Z,17.73
2023-07-09T14:42:59.115Z,18.07
2023-07-09T14:45:32.501Z,19.10
2023-07-09T14:48:05.208Z,19.13
2023-07-09T14:50:37.316Z,18.30
2023-07-09T14:53:10.260Z,18.23
2023-07-09T14:55:42.144Z,16.73
2023-07-09T14:58:21.375Z,19.47
2023-07-09T15:03:26.313Z,24.47
2023-07-09T15:05:58.452Z,25.97
2023-07-09T15:08:30.912Z,15.60
2023-07-09T15:11:02.795Z,23.63
2023-07-09T15:13:38.574Z,17.13
2023-07-09T15:16:10.064Z,17.20
2023-07-09T15:18:41.173Z,20.80
2023-07-09T15:21:15.706Z,21.87
2023-07-09T15:23:48.426Z,17.10
2023-07-09T15:26:20.704Z,21.83
2023-07-09T15:28:54.191Z,17.97
2023-07-09T15:31:25.895Z,23.67
2023-07-09T15:33:56.809Z,17.20
2023-07-09T15:36:27.462Z,17.27
2023-07-09T15:38:58.180Z,18.47
2023-07-09T15:41:28.846Z,19.20
2023-07-09T15:44:04.789Z,17.40
2023-07-09T15:46:36.381Z,23.70
2023-07-09T15:49:08.775Z,17.63
2023-07-09T15:51:47.131Z,18.80
2023-07-09T15:54:22.311Z,21.40
2023-07-09T15:56:55.490Z,21.13
2023-07-09T15:59:33.548Z,18.37
2023-07-09T16:02:06.546Z,15.23
2023-07-09T16:04:37.578Z,22.07
2023-07-09T16:07:08.654Z,19.60
2023-07-09T16:09:40.965Z,20.37
2023-07-09T16:12:18.167Z,15.87
2023-07-09T16:14:51.339Z,18.33
2023-07-09T16:17:24.595Z,23.70
2023-07-09T16:19:55.400Z,25.20
2023-07-09T16:22:26.193Z,21.77
2023-07-09T16:24:56.902Z,25.10
2023-07-09T16:27:27.918Z,25.47
2023-07-09T16:30:00.406Z,24.93
2023-07-09T16:32:31.162Z,26.27
2023-07-09T16:35:01.619Z,19.30
2023-07-09T16:37:32.222Z,20.03
2023-07-09T16:40:02.858Z,25.40
2023-07-09T16:42:36.875Z,18.37
2023-07-09T16:45:10.408Z,17.37
2023-07-09T16:47:43.619Z,24.30
2023-07-09T16:50:17.965Z,19.00
2023-07-09T16:52:49.504Z,16.57
2023-07-09T16:55:22.685Z,23.13
2023-07-09T16:57:57.213Z,20.70
2023-07-09T17:00:35.282Z,17.47
2023-07-09T17:03:08.320Z,17.60
2023-07-09T17:05:38.956Z,17.40
2023-07-09T17:08:10.377Z,19.07
2023-07-09T17:10:45.227Z,18.73
2023-07-09T17:13:22.591Z,18.17
2023-07-09T17:15:55.197Z,18.93
2023-07-09T17:18:27.601Z,18.40
2023-07-09T17:21:00.717Z,18.47
2023-07-09T17:23:32.655Z,21.07
2023-07-09T17:26:03.746Z,20.70
2023-07-09T17:28:37.803Z,18.83
2023-07-09T17:31:10.092Z,21.93
2023-07-09T17:33:40.632Z,21.97
2023-07-09T17:36:19.060Z,18.07
2023-07-09T17:41:20.940Z,17.83
2023-07-09T17:43:51.674Z,18.80
2023-07-09T17:46:25.428Z,21.10
2023-07-09T17:48:56.114Z,24.03
2023-07-09T17:51:26.851Z,19.60
2023-07-09T17:53:57.454Z,22.00
2023-07-09T17:56:31.601Z,17.20
2023-07-09T17:59:02.154Z,21.27
2023-07-09T18:01:37.423Z,27.23
2023-07-09T18:04:29.633Z,21.77
2023-07-09T18:07:03.373Z,21.47
2023-07-09T18:09:37.474Z,21.93
2023-07-09T18:12:08.725Z,21.77
2023-07-09T18:14:44.648Z,20.47
2023-07-09T18:17:20.171Z,16.03
2023-07-09T18:19:50.964Z,18.27
2023-07-09T18:22:23.092Z,23.33
2023-07-09T18:24:54.945Z,23.13
2023-07-09T18:27:31.495Z,19.73
2023-07-09T18:30:02.185Z,24.00
2023-07-09T18:32:35.447Z,26.53
2023-07-09T18:35:21.837Z,31.33
2023-07-09T18:37:55.702Z,33.03
2023-07-09T18:40:28.467Z,38.37
2023-07-09T18:42:59.487Z,21.60
2023-07-09T18:45:32.155Z,26.77
2023-07-09T18:48:05.012Z,20.90
2023-07-09T18:50:36.403Z,24.53
2023-07-09T18:53:07.664Z,20.33
2023-07-09T18:55:38.723Z,20.67
2023-07-09T18:58:14.159Z,26.33
2023-07-09T19:00:44.746Z,18.93
2023-07-09T19:03:18.605Z,17.27
2023-07-09T19:05:50.092Z,19.33
2023-07-09T19:08:23.540Z,17.90
2023-07-09T19:10:54.275Z,17.00
2023-07-09T19:13:24.980Z,20.17
2023-07-09T19:15:58.819Z,21.90
2023-07-09T19:18:37.117Z,21.63
2023-07-09T19:21:08.837Z,34.63
2023-07-09T19:23:39.358Z,35.10
2023-07-09T19:26:13.115Z,17.53
2023-07-09T19:28:43.523Z,23.73
2023-07-09T19:31:14.258Z,23.10
2023-07-09T19:33:46.617Z,21.30
2023-07-09T19:36:24.724Z,24.10
2023-07-09T19:38:56.561Z,23.53
2023-07-09T19:41:28.648Z,20.30
2023-07-09T19:43:59.091Z,22.80
2023-07-09T19:46:29.993Z,27.37
2023-07-09T19:49:02.173Z,21.10
2023-07-09T19:51:34.900Z,22.20
2023-07-09T19:54:05.390Z,22.03
2023-07-09T19:56:35.801Z,19.13
2023-07-09T19:59:06.175Z,21.10
2023-07-09T20:01:36.797Z,22.40
2023-07-09T20:04:09.426Z,24.40
2023-07-09T20:06:40.029Z,16.67
2023-07-09T20:09:16.238Z,16.50
2023-07-09T20:11:50.112Z,17.50
2023-07-09T20:14:22.890Z,16.43
2023-07-09T20:16:53.302Z,15.70
2023-07-09T20:19:26.859Z,14.47
2023-07-09T20:21:57.257Z,15.70
2023-07-09T20:24:27.828Z,17.20
2023-07-09T20:26:58.884Z,17.37
2023-07-09T20:29:29.545Z,14.17
2023-07-09T20:32:00.045Z,13.33
2023-07-09T20:34:32.162Z,16.33
2023-07-09T20:37:02.637Z,15.50
2023-07-09T20:39:33.506Z,17.97
2023-07-09T20:42:04.004Z,14.67
2023-07-09T20:44:37.936Z,15.40
2023-07-09T20:47:18.910Z,17.20
2023-07-09T20:49:51.982Z,20.30
2023-07-09T20:52:26.166Z,14.87
2023-07-09T20:54:56.659Z,14.23
2023-07-09T20:57:27.725Z,17.37
2023-07-09T20:59:58.157Z,19.13
2023-07-09T21:02:30.091Z,17.90
2023-07-09T21:05:02.244Z,19.57
2023-07-09T21:07:32.668Z,17.73
2023-07-09T21:10:03.165Z,16.50
2023-07-09T21:12:33.520Z,19.07
2023-07-09T21:15:04.025Z,18.47
2023-07-09T21:17:34.634Z,18.23
2023-07-09T21:20:16.006Z,14.40
2023-07-09T21:22:46.414Z,16.63
2023-07-09T21:25:22.756Z,12.50
2023-07-09T21:27:54.337Z,19.93
2023-07-09T21:30:25.859Z,15.03
2023-07-09T21:32:56.480Z,15.87
2023-07-09T21:35:30.462Z,18.03
2023-07-09T21:38:02.874Z,16.23
2023-07-09T21:40:34.877Z,17.23
2023-07-09T21:43:08.346Z,19.43
2023-07-09T21:45:42.362Z,17.10
2023-07-09T21:48:16.229Z,17.87
2023-07-09T21:50:49.128Z,18.60
2023-07-09T21:53:23.455Z,18.33
2023-07-09T21:56:01.550Z,17.60
2023-07-09T21:58:32.014Z,17.80
2023-07-09T22:01:02.461Z,20.17
2023-07-09T22:03:33.130Z,18.17
2023-07-09T22:06:05.546Z,16.50
2023-07-09T22:08:36.144Z,16.87
2023-07-09T22:11:23.591Z,20.23
2023-07-09T22:13:57.274Z,16.13
2023-07-09T22:16:29.274Z,18.33
2023-07-09T22:18:59.686Z,14.83
2023-07-09T22:21:40.409Z,16.00
2023-07-09T22:24:14.982Z,13.60
2023-07-09T22:26:45.704Z,14.37
2023-07-09T22:29:16.201Z,18.07
2023-07-09T22:31:47.489Z,15.20
2023-07-09T22:34:23.488Z,11.67
2023-07-09T22:36:55.463Z,14.13
2023-07-09T22:39:26.547Z,17.70
2023-07-09T22:41:58.495Z,15.43
2023-07-09T22:44:29.546Z,13.70
2023-07-09T22:47:01.806Z,13.17
2023-07-09T22:49:32.462Z,13.50
2023-07-09T22:52:04.851Z,14.67
2023-07-09T22:54:35.248Z,14.53
2023-07-09T22:57:05.895Z,20.83
2023-07-09T22:59:36.364Z,21.63
2023-07-09T23:02:08.676Z,16.83
2023-07-09T23:04:39.192Z,15.53
2023-07-09T23:07:15.677Z,19.63
2023-07-09T23:09:46.007Z,13.00
2023-07-09T23:12:16.701Z,14.10
2023-07-09T23:14:47.140Z,13.10
2023-07-09T23:17:17.619Z,15.37
2023-07-09T23:19:48.855Z,15.97
2023-07-09T23:22:20.909Z,14.13
2023-07-09T23:24:51.448Z,12.73
2023-07-09T23:27:22.786Z,13.13
2023-07-09T23:29:53.287Z,13.43
2023-07-09T23:32:25.061Z,16.13
2023-07-09T23:34:55.541Z,17.63
2023-07-09T23:37:27.625Z,13.83
2023-07-09T23:39:57.978Z,21.90
2023-07-09T23:42:28.447Z,15.47
2023-07-09T23:44:59.083Z,16.63
2023-07-09T23:47:29.515Z,15.77
2023-07-09T23:49:59.933Z,12.07
2023-07-09T23:52:33.144Z,15.97
2023-07-09T23:55:03.622Z,14.47
2023-07-09T23:57:34.331Z,11.23
